Time;durP1;ratioP1;P1;durP2;ratioP2;P2;SDS_P1;SDS_P2;PMS_P1;PMS_P2;Temp;Humidity;BMP_temperature;BMP_pressure;BME280_temperature;BME280_humidity;BME280_pressure;Samples;Min_cycle;Max_cycle;Signal;HPM_P1;HPM_P2
2022/12/18 00:02:04;;;;;;;49.73;29.20;;;18.60;70.30;;;;;;1888937;74;21232;-83
2022/12/18 00:04:35;;;;;;;50.17;28.90;;;18.70;70.00;;;;;;1891363;74;21193;-83
2022/12/18 00:07:06;;;;;;;42.38;28.00;;;18.60;70.00;;;;;;1857540;76;21248;-83
2022/12/18 00:09:37;;;;;;;52.20;28.55;;;18.60;70.10;;;;;;1853231;75;21174;-83
2022/12/18 00:12:09;;;;;;;48.52;29.90;;;18.70;70.10;;;;;;1890034;74;21253;-82
2022/12/18 00:14:41;;;;;;;52.13;30.43;;;18.60;69.50;;;;;;1892590;74;21061;-83
2022/12/18 00:17:12;;;;;;;51.95;30.77;;;18.60;69.70;;;;;;1889018;74;21170;-81
2022/12/18 00:19:43;;;;;;;53.55;31.75;;;18.70;69.80;;;;;;1891505;74;21048;-83
2022/12/18 00:22:14;;;;;;;57.15;31.57;;;18.60;69.90;;;;;;1874398;75;21108;-83
2022/12/18 00:24:44;;;;;;;54.20;30.37;;;18.70;69.90;;;;;;1899236;75;21186;-84
2022/12/18 00:27:16;;;;;;;55.20;29.98;;;18.70;69.80;;;;;;1899075;74;21178;-83
2022/12/18 00:29:47;;;;;;;49.88;29.77;;;18.70;69.80;;;;;;1859455;75;21152;-85
2022/12/18 00:32:18;;;;;;;51.45;29.27;;;18.80;70.00;;;;;;1791127;78;21068;-82
2022/12/18 00:34:50;;;;;;;50.05;29.20;;;18.80;69.40;;;;;;1856534;77;21101;-82
2022/12/18 00:37:21;;;;;;;50.35;29.55;;;18.90;69.50;;;;;;1857171;77;22239;-83
2022/12/18 00:39:51;;;;;;;51.60;29.63;;;18.90;68.90;;;;;;1856420;77;21073;-82
2022/12/18 00:45:13;;;;;;;47.30;27.22;;;18.90;69.10;;;;;;1861016;77;21116;-82
2022/12/18 00:47:44;;;;;;;43.75;25.82;;;19.00;69.20;;;;;;1861738;77;21195;-82
2022/12/18 00:50:14;;;;;;;45.85;27.55;;;19.00;68.40;;;;;;1848960;77;21115;-81
2022/12/18 00:52:45;;;;;;;46.73;27.67;;;19.00;67.90;;;;;;1845161;77;21127;-83
2022/12/18 00:55:17;;;;;;;45.73;26.73;;;19.00;68.00;;;;;;1843656;76;21152;-82
2022/12/18 00:57:48;;;;;;;46.28;26.60;;;19.00;68.30;;;;;;1867814;75;21116;-83
2022/12/18 01:00:19;;;;;;;47.83;27.50;;;19.10;68.00;;;;;;1853897;75;21089;-82
2022/12/18 01:02:50;;;;;;;46.23;27.07;;;19.10;67.90;;;;;;1857588;75;21069;-81
2022/12/18 01:05:21;;;;;;;43.60;25.80;;;19.20;67.60;;;;;;1848623;77;21077;-81
2022/12/18 01:07:52;;;;;;;45.03;26.97;;;19.20;67.20;;;;;;1842117;77;21104;-81
2022/12/18 01:10:24;;;;;;;44.65;26.30;;;19.10;67.00;;;;;;1852682;76;21124;-81
2022/12/18 01:12:55;;;;;;;44.42;25.57;;;19.20;67.10;;;;;;1858343;75;21151;-82
2022/12/18 01:15:26;;;;;;;46.80;25.62;;;19.20;66.70;;;;;;1861302;75;21104;-80
2022/12/18 01:17:56;;;;;;;47.93;23.77;;;19.20;66.50;;;;;;1867305;75;21210;-81
2022/12/18 01:20:27;;;;;;;37.15;23.52;;;19.20;65.90;;;;;;1855233;75;21257;-85
2022/12/18 01:23:00;;;;;;;40.00;23.95;;;19.20;65.80;;;;;;1842034;77;21181;-72
2022/12/18 01:25:30;;;;;;;41.53;23.50;;;19.20;65.50;;;;;;1852435;77;21178;-71
2022/12/18 01:28:01;;;;;;;36.95;24.10;;;19.20;65.30;;;;;;1858660;75;21249;-71
2022/12/18 01:30:32;;;;;;;41.80;22.82;;;19.20;64.90;;;;;;1848583;75;21278;-71
2022/12/18 01:33:04;;;;;;;41.53;22.90;;;19.20;64.40;;;;;;1826931;77;21244;-72
2022/12/18 01:35:43;;;;;;;35.83;22.52;;;19.20;64.20;;;;;;1833400;77;21610;-71
2022/12/18 01:38:14;;;;;;;41.00;23.47;;;19.30;63.60;;;;;;1827489;76;21213;-72
2022/12/18 01:40:47;;;;;;;39.25;24.30;;;19.30;63.90;;;;;;1829776;76;21182;-71
2022/12/18 01:43:19;;;;;;;36.85;22.25;;;19.30;63.60;;;;;;1827852;76;21215;-71
2022/12/18 01:45:50;;;;;;;37.28;22.80;;;19.30;63.00;;;;;;1837698;75;21728;-71
2022/12/18 01:48:21;;;;;;;46.95;24.47;;;19.40;63.20;;;;;;1820207;76;21176;-71
2022/12/18 01:50:51;;;;;;;37.55;22.15;;;19.40;62.80;;;;;;1827162;77;21233;-73
2022/12/18 01:53:24;;;;;;;36.95;21.93;;;19.40;61.30;;;;;;1833241;77;21498;-71
2022/12/18 01:55:57;;;;;;;38.58;21.07;;;19.50;61.10;;;;;;1829566;77;21232;-71
2022/12/18 01:58:56;;;;;;;30.10;19.90;;;19.50;61.60;;;;;;1828181;77;21551;-71
2022/12/18 02:01:28;;;;;;;40.15;20.95;;;19.50;60.80;;;;;;1833373;76;21512;-73
2022/12/18 02:04:20;;;;;;;37.63;20.45;;;19.60;59.80;;;;;;1835101;76;21115;-71
2022/12/18 02:07:08;;;;;;;42.50;20.27;;;19.60;59.60;;;;;;1829027;77;21208;-71
2022/12/18 02:09:44;;;;;;;32.98;20.30;;;19.60;59.60;;;;;;1828787;77;21180;-71
2022/12/18 02:12:26;;;;;;;33.55;20.32;;;19.60;59.80;;;;;;1797551;77;21217;-70
2022/12/18 02:15:05;;;;;;;33.78;19.57;;;19.70;59.40;;;;;;1830946;75;21186;-71
2022/12/18 02:17:41;;;;;;;37.17;19.82;;;19.70;59.10;;;;;;1818401;77;21162;-71
2022/12/18 02:20:33;;;;;;;32.40;19.87;;;19.70;58.60;;;;;;1825545;75;21147;-72
2022/12/18 02:23:12;;;;;;;32.25;18.90;;;19.80;58.40;;;;;;1823179;77;22571;-71
2022/12/18 02:26:11;;;;;;;28.73;17.48;;;19.80;58.40;;;;;;1832531;75;21134;-70
2022/12/18 02:28:57;;;;;;;32.78;17.48;;;19.80;58.20;;;;;;1849201;75;21222;-69
2022/12/18 02:31:31;;;;;;;25.90;16.25;;;19.90;57.50;;;;;;1833574;75;21179;-71
2022/12/18 02:34:07;;;;;;;38.30;17.32;;;19.90;57.30;;;;;;1861442;75;21160;-71
2022/12/18 02:36:42;;;;;;;29.50;17.07;;;20.00;57.00;;;;;;1858550;75;21093;-70
2022/12/18 02:39:14;;;;;;;31.15;16.82;;;20.10;57.30;;;;;;1854629;77;21241;-71
2022/12/18 02:41:45;;;;;;;28.80;17.40;;;20.10;57.10;;;;;;1859270;76;21124;-72
2022/12/18 02:44:18;;;;;;;35.43;16.12;;;20.10;57.30;;;;;;1854527;76;21576;-71
2022/12/18 02:46:51;;;;;;;27.85;15.68;;;20.20;56.50;;;;;;1858235;77;21270;-72
2022/12/18 02:49:35;;;;;;;30.88;15.50;;;20.30;55.10;;;;;;1852034;77;21648;-72
2022/12/18 02:52:20;;;;;;;27.70;16.10;;;20.30;55.60;;;;;;1864748;75;21160;-72
2022/12/18 02:55:03;;;;;;;27.73;16.35;;;20.40;55.50;;;;;;1863957;77;21190;-73
2022/12/18 02:57:48;;;;;;;32.38;17.30;;;20.40;55.40;;;;;;1793310;76;21155;-72
2022/12/18 03:00:24;;;;;;;34.05;16.23;;;20.50;55.20;;;;;;1863673;75;21277;-73
2022/12/18 03:03:10;;;;;;;26.93;15.38;;;20.50;55.10;;;;;;1864696;75;21073;-72
2022/12/18 03:05:43;;;;;;;29.52;15.48;;;20.50;55.00;;;;;;1863941;76;21100;-72
2022/12/18 03:08:26;;;;;;;27.87;15.32;;;20.60;55.10;;;;;;1859523;75;21152;-72
2022/12/18 03:11:05;;;;;;;27.50;14.35;;;20.60;54.40;;;;;;1862821;77;21061;-73
2022/12/18 03:13:55;;;;;;;29.18;15.03;;;20.70;54.30;;;;;;1855252;75;21147;-72
2022/12/18 03:16:29;;;;;;;29.45;16.30;;;20.70;54.40;;;;;;1863822;75;21242;-72
2022/12/18 03:19:05;;;;;;;28.55;15.38;;;20.80;54.20;;;;;;1864837;75;21467;-72
2022/12/18 03:21:50;;;;;;;28.00;15.60;;;20.80;54.10;;;;;;1862774;76;21580;-71
2022/12/18 03:24:23;;;;;;;36.33;18.50;;;20.80;54.70;;;;;;1858619;77;21210;-71
2022/12/18 03:26:57;;;;;;;27.87;17.10;;;20.90;54.70;;;;;;1859408;76;21152;-72
2022/12/18 03:29:43;;;;;;;26.82;16.45;;;21.00;54.40;;;;;;1862583;76;21199;-72
2022/12/18 03:32:31;;;;;;;26.90;15.48;;;21.10;54.10;;;;;;1854327;77;21151;-71
2022/12/18 03:35:04;;;;;;;30.95;15.78;;;21.20;53.90;;;;;;1845438;77;21156;-73
2022/12/18 03:37:35;;;;;;;36.00;15.80;;;21.20;53.70;;;;;;1846159;77;21285;-72
2022/12/18 03:40:12;;;;;;;26.17;15.45;;;21.30;52.60;;;;;;1852504;77;21077;-72
2022/12/18 03:42:51;;;;;;;22.93;14.38;;;21.30;52.80;;;;;;1855277;77;21081;-72
2022/12/18 03:45:40;;;;;;;26.27;14.83;;;21.40;53.10;;;;;;1833155;77;21084;-71
2022/12/18 03:48:16;;;;;;;27.95;15.08;;;21.50;53.30;;;;;;1834836;77;21729;-72
2022/12/18 03:51:05;;;;;;;26.02;14.60;;;21.60;52.30;;;;;;1827528;77;21142;-72
2022/12/18 03:53:50;;;;;;;29.85;13.65;;;21.60;52.80;;;;;;1830082;77;21142;-73
2022/12/18 03:56:23;;;;;;;;;;;21.70;52.50;;;;;;1835059;76;21661;-73
2022/12/18 03:58:56;;;;;;;26.33;14.33;;;21.80;52.30;;;;;;1833794;76;20168;-73
2022/12/18 04:01:32;;;;;;;26.15;15.05;;;21.90;51.70;;;;;;1798185;77;21573;-73
2022/12/18 04:04:04;;;;;;;26.77;14.43;;;21.90;51.10;;;;;;1833450;77;21126;-73
2022/12/18 04:06:36;;;;;;;34.58;15.83;;;22.00;51.00;;;;;;1828410;75;21182;-80
2022/12/18 04:09:07;;;;;;;28.00;14.10;;;22.00;52.20;;;;;;1852957;75;21166;-78
2022/12/18 04:11:43;;;;;;;29.75;14.60;;;22.10;51.40;;;;;;1836213;77;21087;-81
2022/12/18 04:14:14;;;;;;;23.87;13.83;;;22.20;51.60;;;;;;1835411;75;21135;-81
2022/12/18 04:16:46;;;;;;;28.67;13.75;;;22.30;50.90;;;;;;1840562;77;21168;-79
2022/12/18 04:19:17;;;;;;;24.57;15.13;;;22.30;50.40;;;;;;1824950;77;21170;-82
2022/12/18 04:21:48;;;;;;;31.48;14.10;;;22.30;50.20;;;;;;1833542;75;21209;-80
2022/12/18 04:24:32;;;;;;;24.40;13.68;;;22.50;50.70;;;;;;1838040;75;21508;-79
2022/12/18 04:27:01;;;;;;;26.68;12.93;;;22.50;50.00;;;;;;1836323;77;21142;-79
2022/12/18 04:29:49;;;;;;;22.67;14.38;;;22.60;49.30;;;;;;1829589;77;21056;-79
2022/12/18 04:32:26;;;;;;;27.35;13.75;;;22.60;49.70;;;;;;1876119;75;21108;-82
2022/12/18 04:34:54;;;;;;;27.62;12.73;;;22.70;49.90;;;;;;1859226;75;22321;-80
2022/12/18 04:37:25;;;;;;;23.80;12.43;;;22.80;49.60;;;;;;1866173;75;21189;-78
2022/12/18 04:40:04;;;;;;;27.15;12.88;;;22.90;49.30;;;;;;1869370;75;21116;-82
2022/12/18 04:42:37;;;;;;;22.07;12.55;;;23.00;49.20;;;;;;1845148;76;21151;-81
2022/12/18 04:45:13;;;;;;;24.02;13.72;;;23.00;49.00;;;;;;1880214;76;21207;-80
2022/12/18 04:47:43;;;;;;;24.80;12.07;;;23.00;48.40;;;;;;1876058;76;21619;-82
2022/12/18 04:50:14;;;;;;;23.22;12.33;;;22.90;48.70;;;;;;1857836;76;21163;-80
2022/12/18 04:52:45;;;;;;;27.52;13.03;;;22.80;48.90;;;;;;1855243;75;21072;-80
2022/12/18 04:55:20;;;;;;;26.60;11.38;;;22.80;49.30;;;;;;1878315;75;21131;-81
2022/12/18 04:58:04;;;;;;;23.52;12.73;;;22.70;49.30;;;;;;1873845;75;21081;-80
2022/12/18 05:00:41;;;;;;;23.55;12.30;;;22.70;49.70;;;;;;1865997;75;21159;-84
2022/12/18 05:03:17;;;;;;;19.30;12.70;;;22.70;49.90;;;;;;1866199;76;21237;-82
2022/12/18 05:05:54;;;;;;;24.02;12.80;;;22.70;49.90;;;;;;1853401;76;21511;-81
2022/12/18 05:08:26;;;;;;;25.72;12.78;;;22.80;49.50;;;;;;1859919;75;21164;-82
2022/12/18 05:11:03;;;;;;;23.07;13.68;;;22.90;49.60;;;;;;1791141;79;21146;-79
2022/12/18 05:13:43;;;;;;;24.52;13.70;;;22.90;49.60;;;;;;1868537;76;21166;-81
2022/12/18 05:16:14;;;;;;;22.62;13.00;;;23.00;49.80;;;;;;1859037;76;21072;-82
2022/12/18 05:18:45;;;;;;;31.82;12.88;;;23.00;49.00;;;;;;1861410;75;21231;-82
2022/12/18 05:21:16;;;;;;;24.60;12.33;;;23.00;48.90;;;;;;1861512;77;21201;-81
2022/12/18 05:23:47;;;;;;;27.25;11.88;;;23.00;49.40;;;;;;1868480;77;21599;-84
2022/12/18 05:26:19;;;;;;;24.90;12.78;;;23.00;48.90;;;;;;1819194;78;21237;-82
2022/12/18 05:28:50;;;;;;;27.65;13.68;;;23.00;48.80;;;;;;1804466;79;21102;-83
2022/12/18 05:31:20;;;;;;;25.57;13.15;;;23.10;48.90;;;;;;1768243;79;21130;-81
2022/12/18 05:33:54;;;;;;;21.55;11.65;;;23.20;49.00;;;;;;1786934;78;21173;-81
2022/12/18 05:36:25;;;;;;;22.13;11.80;;;23.30;49.00;;;;;;1783123;79;21117;-82
2022/12/18 05:39:00;;;;;;;23.20;11.43;;;23.40;48.30;;;;;;1892757;75;21143;-82
2022/12/18 05:41:34;;;;;;;20.95;11.40;;;23.40;48.60;;;;;;1889788;75;21128;-83
2022/12/18 05:44:05;;;;;;;28.17;11.83;;;23.60;48.40;;;;;;1888211;74;21116;-81
2022/12/18 05:46:40;;;;;;;21.87;11.55;;;23.80;46.60;;;;;;1870471;75;21182;-83
2022/12/18 05:49:12;;;;;;;24.50;11.35;;;23.80;47.10;;;;;;1882541;76;21107;-82
2022/12/18 05:51:44;;;;;;;21.62;11.55;;;23.90;47.40;;;;;;1885208;75;21128;-80
2022/12/18 05:54:15;;;;;;;22.30;11.83;;;23.90;47.90;;;;;;1887216;73;21169;-82
2022/12/18 05:56:47;;;;;;;21.48;11.53;;;24.00;47.10;;;;;;1883690;74;21670;-82
2022/12/18 05:59:19;;;;;;;23.38;10.72;;;24.00;47.70;;;;;;1848726;76;21131;-84
2022/12/18 06:01:56;;;;;;;23.00;11.12;;;24.10;47.20;;;;;;1856443;75;21094;-86
2022/12/18 06:04:37;;;;;;;23.70;10.88;;;24.20;47.00;;;;;;1838251;76;21063;-86
2022/12/18 06:07:08;;;;;;;;;;;24.20;47.20;;;;;;1910083;74;21104;-87
2022/12/18 06:09:41;;;;;;;23.12;11.83;;;24.30;48.40;;;;;;1892270;75;20206;-87
2022/12/18 06:12:12;;;;;;;21.90;12.25;;;24.40;47.10;;;;;;1884747;75;21108;-87
2022/12/18 06:14:44;;;;;;;25.72;11.48;;;24.40;46.50;;;;;;1891942;75;21178;-87
2022/12/18 06:17:16;;;;;;;21.85;11.22;;;24.40;46.30;;;;;;1888956;75;21146;-86
2022/12/18 06:19:51;;;;;;;21.93;10.87;;;24.40;46.40;;;;;;1888950;75;21097;-88
2022/12/18 06:22:45;;;;;;;26.52;11.97;;;24.50;46.50;;;;;;1897239;75;21198;-87
2022/12/18 06:25:25;;;;;;;23.02;12.13;;;24.60;46.60;;;;;;1896473;75;21076;-86
2022/12/18 06:27:58;;;;;;;22.93;11.73;;;24.60;45.60;;;;;;1896104;75;21169;-87
2022/12/18 06:30:36;;;;;;;22.00;11.68;;;24.50;45.90;;;;;;1881821;75;21107;-88
2022/12/18 06:33:08;;;;;;;19.27;10.85;;;24.50;45.70;;;;;;1885381;75;21135;-90
2022/12/18 06:35:40;;;;;;;20.55;11.93;;;24.50;46.50;;;;;;1893796;75;21077;-87
2022/12/18 06:38:11;;;;;;;20.17;11.78;;;24.50;46.00;;;;;;1879062;75;21174;-88
2022/12/18 06:40:41;;;;;;;23.85;11.08;;;24.50;45.70;;;;;;1880335;75;21594;-87
2022/12/18 06:43:14;;;;;;;25.10;10.60;;;24.50;46.00;;;;;;1896364;75;21080;-89
2022/12/18 06:45:46;;;;;;;23.65;11.48;;;24.50;45.90;;;;;;1832256;77;21096;-88
2022/12/18 06:48:36;;;;;;;20.43;11.08;;;24.50;45.60;;;;;;1874156;75;21162;-90
2022/12/18 06:51:06;;;;;;;21.97;12.18;;;24.60;45.90;;;;;;1869888;75;21485;-89
2022/12/18 06:53:40;;;;;;;20.32;11.12;;;24.50;46.30;;;;;;1886422;75;21136;-90
2022/12/18 06:56:11;;;;;;;21.87;10.70;;;24.50;46.30;;;;;;1848154;76;21223;-90
2022/12/18 06:58:44;;;;;;;24.05;12.45;;;24.60;46.40;;;;;;1854608;77;21183;-90
2022/12/18 07:01:17;;;;;;;21.07;11.00;;;24.60;45.70;;;;;;1823695;77;21166;-91
2022/12/18 07:03:48;;;;;;;26.90;11.40;;;24.60;45.90;;;;;;1878986;76;21164;-91
2022/12/18 07:06:24;;;;;;;23.60;12.53;;;24.60;46.20;;;;;;1876586;75;21160;-88
2022/12/18 07:08:55;;;;;;;21.45;11.50;;;24.60;46.10;;;;;;1877159;75;21138;-90
2022/12/18 07:11:27;;;;;;;24.85;11.50;;;24.70;46.10;;;;;;1886240;75;21231;-89
2022/12/18 07:13:57;;;;;;;21.23;10.58;;;24.60;45.70;;;;;;1882410;75;21136;-89
2022/12/18 07:16:31;;;;;;;22.32;11.80;;;24.70;46.20;;;;;;1877920;75;21125;-87
2022/12/18 07:19:02;;;;;;;19.77;11.05;;;24.60;46.50;;;;;;1880070;75;21145;-90
2022/12/18 07:21:34;;;;;;;19.52;9.75;;;24.60;46.10;;;;;;1846506;76;21074;-89
2022/12/18 07:24:06;;;;;;;28.52;10.85;;;24.60;46.50;;;;;;1802894;78;21159;-90
2022/12/18 07:26:37;;;;;;;23.60;10.65;;;24.70;46.40;;;;;;1823910;78;21214;-88
2022/12/18 07:29:08;;;;;;;25.08;10.23;;;24.70;46.00;;;;;;1831096;77;21654;-90
2022/12/18 07:31:38;;;;;;;21.37;10.80;;;24.70;46.00;;;;;;1819730;78;21147;-90
2022/12/18 07:34:16;;;;;;;20.52;10.23;;;24.70;46.30;;;;;;1819915;77;21182;-87
2022/12/18 07:36:47;;;;;;;26.10;10.60;;;24.70;46.20;;;;;;1882628;75;21116;-89
2022/12/18 07:39:21;;;;;;;21.10;9.43;;;24.70;46.30;;;;;;1878629;75;21642;-88
2022/12/18 07:44:40;;;;;;;24.45;9.80;;;24.60;46.20;;;;;;1827480;78;21140;-89
2022/12/18 07:47:10;;;;;;;26.82;10.35;;;24.60;46.40;;;;;;1828026;78;21112;-88
2022/12/18 07:49:41;;;;;;;18.10;10.53;;;24.60;46.60;;;;;;1833666;78;21234;-90
2022/12/18 07:52:12;;;;;;;23.65;10.43;;;24.60;46.10;;;;;;1819191;78;21100;-90
2022/12/18 07:54:53;;;;;;;26.05;10.85;;;24.50;46.20;;;;;;1821818;78;21721;-90
2022/12/18 07:57:26;;;;;;;26.60;10.23;;;24.50;46.50;;;;;;1835538;76;21093;-89
2022/12/18 08:00:01;;;;;;;21.15;10.58;;;24.50;46.80;;;;;;1818368;77;21092;-92
2022/12/18 08:02:35;;;;;;;21.25;10.25;;;24.50;46.90;;;;;;1828894;78;21204;-91
2022/12/18 08:05:10;;;;;;;18.40;9.53;;;24.50;46.60;;;;;;1860179;76;21152;-91
2022/12/18 08:07:41;;;;;;;17.20;9.20;;;24.40;46.40;;;;;;1807474;78;21165;-89
2022/12/18 08:10:15;;;;;;;18.32;9.25;;;24.40;46.90;;;;;;1835667;78;21634;-90
2022/12/18 08:12:48;;;;;;;25.82;12.30;;;24.40;47.10;;;;;;1841506;77;21091;-91
2022/12/18 08:15:23;;;;;;;21.50;10.70;;;24.40;47.60;;;;;;1834307;77;21112;-89
2022/12/18 08:17:59;;;;;;;21.68;10.45;;;24.30;47.80;;;;;;1880053;74;21528;-91
2022/12/18 08:20:33;;;;;;;18.12;9.30;;;24.30;47.70;;;;;;1877399;75;21207;-92
2022/12/18 08:23:04;;;;;;;21.52;10.13;;;24.30;48.00;;;;;;1829611;78;21095;-90
2022/12/18 08:25:39;;;;;;;20.77;10.05;;;24.30;47.60;;;;;;1846772;76;21121;-88
2022/12/18 08:28:09;;;;;;;17.57;9.55;;;24.20;47.70;;;;;;1857483;76;21084;-89
2022/12/18 08:30:40;;;;;;;19.35;9.50;;;24.20;47.90;;;;;;1823137;77;21152;-89
2022/12/18 08:33:11;;;;;;;23.42;10.28;;;24.20;47.80;;;;;;1881587;75;21072;-90
2022/12/18 08:35:42;;;;;;;19.42;11.30;;;24.10;48.10;;;;;;1830821;77;21567;-89
2022/12/18 08:38:14;;;;;;;18.73;10.00;;;24.10;47.80;;;;;;1826741;77;21139;-90
2022/12/18 08:40:46;;;;;;;22.45;10.05;;;24.10;48.00;;;;;;1814246;78;21684;-89
2022/12/18 08:46:06;;;;;;;19.12;10.30;;;24.00;48.70;;;;;;1835267;76;21151;-91
2022/12/18 08:48:37;;;;;;;20.10;9.75;;;24.00;48.20;;;;;;1819133;78;21142;-90
2022/12/18 08:51:09;;;;;;;18.30;10.03;;;24.00;49.20;;;;;;1818496;78;21143;-90
2022/12/18 08:53:40;;;;;;;19.35;10.58;;;24.00;48.30;;;;;;1897901;74;21709;-88
2022/12/18 08:56:12;;;;;;;23.18;10.08;;;24.00;48.50;;;;;;1922796;74;21145;-91
2022/12/18 08:58:43;;;;;;;24.43;10.90;;;24.00;48.80;;;;;;1906752;74;21097;-90
2022/12/18 09:01:14;;;;;;;20.20;10.25;;;24.00;48.90;;;;;;1896539;74;21163;-89
2022/12/18 09:03:47;;;;;;;16.57;10.82;;;24.00;48.90;;;;;;1905276;74;21124;-90
2022/12/18 09:06:20;;;;;;;23.75;10.78;;;24.00;48.90;;;;;;1902194;74;21045;-90
2022/12/18 09:08:51;;;;;;;20.05;10.65;;;24.00;48.80;;;;;;1921652;74;21622;-89
2022/12/18 09:11:26;;;;;;;16.62;10.30;;;24.00;48.70;;;;;;1883746;74;21630;-88
2022/12/18 09:13:59;;;;;;;21.95;10.82;;;24.00;49.00;;;;;;1910173;74;21132;-88
2022/12/18 09:16:40;;;;;;;22.35;10.53;;;24.00;48.80;;;;;;1906416;74;21128;-90
2022/12/18 09:19:32;;;;;;;20.62;9.80;;;24.00;48.70;;;;;;1864905;76;21180;-89
2022/12/18 09:22:01;;;;;;;19.95;10.58;;;23.90;48.70;;;;;;1899643;74;21154;-89
2022/12/18 09:24:33;;;;;;;20.23;10.78;;;23.90;49.00;;;;;;1902376;74;21143;-87
2022/12/18 09:27:06;;;;;;;18.75;11.28;;;23.90;49.30;;;;;;1902223;74;21237;-87
2022/12/18 09:29:58;;;;;;;17.92;10.75;;;23.90;49.60;;;;;;1895768;74;21060;-90
2022/12/18 09:32:36;;;;;;;22.10;11.68;;;23.90;49.40;;;;;;1861583;74;21248;-89
2022/12/18 09:35:10;;;;;;;26.82;11.93;;;23.80;49.40;;;;;;1902117;75;21119;-91
2022/12/18 09:37:44;;;;;;;18.75;10.68;;;23.80;49.70;;;;;;1901897;75;21357;-89
2022/12/18 09:40:21;;;;;;;24.60;12.23;;;23.70;49.80;;;;;;1902071;74;21692;-90
2022/12/18 09:43:01;;;;;;;21.33;11.85;;;23.80;49.80;;;;;;1899448;73;21102;-87
2022/12/18 09:45:41;;;;;;;25.68;14.20;;;23.70;50.00;;;;;;1904250;73;21081;-89
2022/12/18 09:48:28;;;;;;;20.50;13.68;;;23.70;50.00;;;;;;1898735;74;21138;-89
2022/12/18 09:51:07;;;;;;;18.87;11.12;;;23.60;50.10;;;;;;1896146;73;21044;-87
2022/12/18 09:53:39;;;;;;;19.10;10.95;;;23.70;50.30;;;;;;1863313;75;21043;-88
2022/12/18 09:56:15;;;;;;;24.57;12.00;;;23.60;50.40;;;;;;1841650;76;21184;-88
2022/12/18 09:58:48;;;;;;;25.12;11.35;;;23.60;50.60;;;;;;1801893;78;21095;-87
2022/12/18 10:01:27;;;;;;;19.75;10.93;;;23.60;50.80;;;;;;1837388;77;21161;-89
2022/12/18 10:04:20;;;;;;;27.65;11.85;;;23.50;51.10;;;;;;1839965;76;21162;-88
2022/12/18 10:07:18;;;;;;;20.85;11.00;;;23.50;51.00;;;;;;1787201;79;21521;-89
2022/12/18 10:10:00;;;;;;;26.87;14.33;;;23.50;51.40;;;;;;1805571;78;21150;-89
2022/12/18 10:12:42;;;;;;;28.27;16.55;;;23.40;51.60;;;;;;1833936;77;21158;-90
2022/12/18 10:15:40;;;;;;;25.88;15.32;;;23.40;51.80;;;;;;1830961;77;21599;-89
2022/12/18 10:19:00;;;;;;;22.30;13.83;;;23.40;52.00;;;;;;1824756;79;21170;-90
2022/12/18 10:21:33;;;;;;;24.50;13.45;;;23.30;52.00;;;;;;1822260;77;21273;-90
2022/12/18 10:24:19;;;;;;;23.12;12.80;;;23.30;51.80;;;;;;1839869;77;21176;-87
2022/12/18 10:26:52;;;;;;;23.40;12.40;;;23.30;52.10;;;;;;1875749;75;21120;-91
2022/12/18 10:29:24;;;;;;;22.82;12.95;;;23.20;52.20;;;;;;1800119;78;21126;-89
2022/12/18 10:32:03;;;;;;;26.05;13.85;;;23.20;52.50;;;;;;1834569;77;21146;-90
2022/12/18 10:34:43;;;;;;;23.90;13.72;;;23.20;52.60;;;;;;1833608;78;21238;-89
2022/12/18 10:37:11;;;;;;;22.40;13.62;;;23.10;52.80;;;;;;1809500;77;21581;-90
2022/12/18 10:39:41;;;;;;;23.75;13.60;;;23.10;52.90;;;;;;1773691;79;21590;-88
2022/12/18 10:42:16;;;;;;;24.85;14.65;;;23.10;53.00;;;;;;1861421;77;21134;-89
2022/12/18 10:44:52;;;;;;;23.18;14.35;;;23.10;53.00;;;;;;1860170;77;21176;-90
2022/12/18 10:47:24;;;;;;;30.10;13.55;;;23.00;53.00;;;;;;1869651;76;21149;-89
2022/12/18 10:50:00;;;;;;;23.15;13.60;;;23.00;53.00;;;;;;1878409;75;21082;-89
2022/12/18 10:52:32;;;;;;;25.17;12.75;;;22.90;53.10;;;;;;1895292;74;21201;-87
2022/12/18 10:55:07;;;;;;;22.30;13.32;;;22.90;53.30;;;;;;1901734;75;21185;-88
2022/12/18 10:57:51;;;;;;;23.10;13.15;;;22.90;53.40;;;;;;1845095;76;21669;-88
2022/12/18 11:00:25;;;;;;;25.10;12.25;;;22.90;53.60;;;;;;1897943;75;21178;-87
2022/12/18 11:03:04;;;;;;;26.90;13.40;;;22.80;53.70;;;;;;1903951;75;21205;-89
2022/12/18 11:05:33;;;;;;;24.63;13.88;;;22.80;54.00;;;;;;1891533;75;21108;-88
2022/12/18 11:08:04;;;;;;;24.98;12.78;;;22.80;54.30;;;;;;1856906;75;21148;-87
2022/12/18 11:10:37;;;;;;;23.90;12.73;;;22.70;54.40;;;;;;1816319;78;21175;-87
2022/12/18 11:13:27;;;;;;;23.85;13.43;;;22.70;54.60;;;;;;1848741;75;21157;-89
2022/12/18 11:16:02;;;;;;;20.00;11.38;;;22.70;54.80;;;;;;1872287;75;21630;-88
2022/12/18 11:18:40;;;;;;;28.35;14.13;;;22.60;54.90;;;;;;1840138;77;21183;-88
2022/12/18 11:21:17;;;;;;;29.27;14.93;;;22.60;55.00;;;;;;1848306;77;21135;-88
2022/12/18 11:24:01;;;;;;;31.25;16.57;;;22.60;55.10;;;;;;1847784;77;21615;-88
2022/12/18 11:26:36;;;;;;;39.35;20.37;;;22.60;55.10;;;;;;1871983;75;21214;-88
2022/12/18 11:29:13;;;;;;;39.83;19.12;;;22.50;55.10;;;;;;1829468;78;21218;-90
2022/12/18 11:31:46;;;;;;;45.00;21.85;;;22.50;55.20;;;;;;1828316;78;21089;-89
2022/12/18 11:34:19;;;;;;;42.10;23.22;;;22.40;55.40;;;;;;1826181;78;21196;-88
2022/12/18 11:36:53;;;;;;;41.08;24.90;;;22.40;55.60;;;;;;1797494;78;21190;-88
2022/12/18 11:39:33;;;;;;;45.45;28.00;;;22.30;55.70;;;;;;1884472;76;21220;-89
2022/12/18 11:42:12;;;;;;;52.58;27.15;;;22.30;55.80;;;;;;1869820;76;21186;-90
2022/12/18 11:45:04;;;;;;;44.08;24.80;;;22.30;56.00;;;;;;1890533;76;21124;-88
2022/12/18 11:47:56;;;;;;;38.58;24.00;;;22.20;55.90;;;;;;1892121;74;21080;-91
2022/12/18 11:50:38;;;;;;;48.13;24.10;;;22.20;56.00;;;;;;1836579;77;21071;-90
2022/12/18 11:53:12;;;;;;;40.20;21.68;;;22.20;56.20;;;;;;1796081;79;21152;-89
2022/12/18 11:56:01;;;;;;;33.15;18.82;;;22.20;56.30;;;;;;1834598;77;21163;-89
2022/12/18 11:58:52;;;;;;;39.23;18.17;;;22.20;56.50;;;;;;1880939;75;21166;-87
2022/12/18 12:01:48;;;;;;;24.57;16.05;;;22.20;56.80;;;;;;1868538;75;21135;-87
2022/12/18 12:04:55;;;;;;;30.88;17.48;;;22.20;56.90;;;;;;1881265;76;21193;-89
2022/12/18 12:07:29;;;;;;;;;;;22.10;57.20;;;;;;1868556;75;21182;-89
2022/12/18 12:10:20;;;;;;;30.65;17.57;;;22.10;57.20;;;;;;1874531;76;20136;-89
2022/12/18 12:12:59;;;;;;;34.13;16.62;;;22.00;57.50;;;;;;1877892;75;21167;-89
2022/12/18 12:15:35;;;;;;;34.03;16.12;;;22.00;57.60;;;;;;1881505;75;21105;-88
2022/12/18 12:18:33;;;;;;;28.23;15.75;;;22.00;57.80;;;;;;1882104;76;21073;-88
2022/12/18 12:21:09;;;;;;;33.88;16.10;;;21.90;58.00;;;;;;1876631;76;21140;-89
2022/12/18 12:23:51;;;;;;;25.97;15.68;;;21.90;58.20;;;;;;1873651;75;21069;-90
2022/12/18 12:26:27;;;;;;;24.77;14.60;;;21.90;58.40;;;;;;1884954;74;21133;-89
2022/12/18 12:29:26;;;;;;;27.53;14.80;;;21.80;58.60;;;;;;1878734;74;21124;-88
2022/12/18 12:32:06;;;;;;;31.10;14.80;;;21.80;58.70;;;;;;1865211;75;21176;-90
2022/12/18 12:35:00;;;;;;;22.55;12.68;;;21.80;59.10;;;;;;1872291;75;21083;-89
2022/12/18 12:37:43;;;;;;;29.83;14.43;;;21.70;59.20;;;;;;1879658;76;21176;-87
2022/12/18 12:40:17;;;;;;;23.87;13.85;;;21.70;59.40;;;;;;1880760;75;21328;-88
2022/12/18 12:45:45;;;;;;;27.25;13.38;;;21.70;59.70;;;;;;1881442;74;21266;-89
2022/12/18 12:48:21;;;;;;;24.57;13.70;;;21.60;59.90;;;;;;1878872;75;21152;-89
2022/12/18 12:50:53;;;;;;;23.52;13.62;;;21.60;60.10;;;;;;1866534;76;21058;-90
2022/12/18 12:53:26;;;;;;;20.50;13.08;;;21.50;60.20;;;;;;1879287;76;21093;-89
2022/12/18 12:55:58;;;;;;;27.02;13.40;;;21.50;60.40;;;;;;1851365;76;21172;-89
2022/12/18 12:58:41;;;;;;;26.17;13.70;;;21.50;60.50;;;;;;1852412;77;21100;-89
2022/12/18 13:01:46;;;;;;;29.20;13.93;;;21.50;60.70;;;;;;1837879;75;21223;-90
2022/12/18 13:04:34;;;;;;;22.27;13.80;;;21.40;61.10;;;;;;1846536;77;21132;-90
2022/12/18 13:07:08;;;;;;;27.75;14.38;;;21.40;61.10;;;;;;1855723;75;21222;-89
2022/12/18 13:09:41;;;;;;;27.15;13.05;;;21.40;61.20;;;;;;1856010;77;21157;-88
2022/12/18 13:15:28;;;;;;;26.25;13.70;;;21.30;61.30;;;;;;1860484;76;21118;-89
2022/12/18 13:18:08;;;;;;;27.30;14.28;;;21.30;61.30;;;;;;1837658;77;21166;-89
2022/12/18 13:20:41;;;;;;;25.68;13.58;;;21.30;61.80;;;;;;1864745;75;21190;-89
2022/12/18 13:23:28;;;;;;;29.02;15.13;;;21.30;61.70;;;;;;1895949;75;21606;-88
2022/12/18 13:26:01;;;;;;;31.65;14.75;;;21.20;61.70;;;;;;1862134;75;21562;-88
2022/12/18 13:28:49;;;;;;;25.60;15.98;;;21.20;61.80;;;;;;1870877;75;22015;-89